| time (UTC) | temp C | wind direction | speed KPH | gust KPH | rain 1hr cm | rain 24hr cm | rain mn cm | humidity % | barometer mb |
| 20260505184436 | 26 | 204 | 25.7 | 0.0 | 0.00 | 0.00 | 0.00 | 31 | 1009.7 |
| 20260505182953 | 26 | 246 | 19.3 | 0.0 | 0.00 | 0.00 | 0.00 | 31 | 1009.7 |
| 20260505181436 | 26 | 212 | 11.3 | 0.0 | 0.00 | 0.00 | 0.00 | 35 | 1009.7 |
| 20260505175936 | 26 | 204 | 30.6 | 0.0 | 0.00 | 0.00 | 0.00 | 35 | 1009.9 |
| 20260505174436 | 26 | 210 | 22.5 | 0.0 | 0.00 | 0.00 | 0.00 | 37 | 1009.9 |
| 20260505172936 | 25 | 233 | 16.1 | 0.0 | 0.00 | 0.00 | 0.00 | 37 | 1009.9 |
| 20260505171436 | 25 | 218 | 24.1 | 0.0 | 0.00 | 0.00 | 0.00 | 38 | 1009.9 |
| 20260505165936 | 25 | 167 | 30.6 | 0.0 | 0.00 | 0.00 | 0.00 | 39 | 1010.9 |
| 20260505164436 | 24 | 242 | 16.1 | 0.0 | 0.00 | 0.00 | 0.00 | 39 | 1010.9 |
| 20260505163010 | 24 | 184 | 14.5 | 0.0 | 0.00 | 0.00 | 0.00 | 42 | 1010.9 |
| 20260505161510 | 24 | 302 | 1.6 | 0.0 | 0.00 | 0.00 | 0.00 | 47 | 1010.9 |
| 20260505152936 | 22 | 234 | 24.1 | 0.0 | 0.00 | 0.00 | 0.00 | 54 | 1010.9 |
| 20260505151454 | 22 | 195 | 6.4 | 0.0 | 0.00 | 0.00 | 0.00 | 56 | 1010.9 |
| 20260505124436 | 15 | 174 | 8.0 | 0.0 | 0.00 | 0.00 | 0.00 | 85 | 1010.8 |
| 20260505122936 | 15 | 143 | 3.2 | 0.0 | 0.00 | 0.00 | 0.00 | 87 | 1010.8 |
| 20260505121436 | 14 | 131 | 3.2 | 0.0 | 0.00 | 0.00 | 0.00 | 89 | 1010.8 |
| 20260505115953 | 12 | 20 | 0.0 | 0.0 | 0.00 | 0.00 | 0.00 | 90 | 1010.3 |
| 20260505114436 | 11 | 76 | 0.0 | 0.0 | 0.00 | 0.00 | 0.00 | 90 | 1010.3 |
| 20260505112936 | 10 | 9 | 1.6 | 0.0 | 0.00 | 0.00 | 0.00 | 90 | 1010.3 |
| 20260505111436 | 10 | 8 | 0.0 | 0.0 | 0.00 | 0.00 | 0.00 | 90 | 1010.3 |
| 20260505101436 | 10 | 8 | 0.0 | 0.0 | 0.00 | 0.00 | 0.00 | 89 | 1010.0 |
| 20260505095936 | 10 | 8 | 0.0 | 0.0 | 0.00 | 0.00 | 0.00 | 88 | 1009.7 |
| 20260505094436 | 10 | 8 | 0.0 | 0.0 | 0.00 | 0.00 | 0.00 | 88 | 1009.7 |
| 20260505092936 | 10 | 8 | 0.0 | 0.0 | 0.00 | 0.00 | 0.00 | 88 | 1009.7 |
| 20260505091436 | 10 | 8 | 0.0 | 0.0 | 0.00 | 0.00 | 0.00 | 88 | 1009.7 |
| 20260505085953 | 10 | 8 | 0.0 | 0.0 | 0.00 | 0.00 | 0.00 | 87 | 1009.3 |
| 20260505084436 | 10 | 8 | 0.0 | 0.0 | 0.00 | 0.00 | 0.00 | 86 | 1009.3 |
| 20260505083010 | 10 | 8 | 0.0 | 0.0 | 0.00 | 0.00 | 0.00 | 86 | 1009.3 |
| 20260505081436 | 10 | 8 | 0.0 | 0.0 | 0.00 | 0.00 | 0.00 | 86 | 1009.3 |
| 20260505075936 | 11 | 144 | 0.0 | 0.0 | 0.00 | 0.00 | 0.00 | 85 | 1009.2 |
| 20260505074436 | 11 | 290 | 0.0 | 0.0 | 0.00 | 0.00 | 0.00 | 83 | 1009.2 |
| 20260505072937 | 11 | 290 | 0.0 | 0.0 | 0.00 | 0.00 | 0.00 | 83 | 1009.2 |
| 20260505071436 | 12 | 290 | 0.0 | 0.0 | 0.00 | 0.00 | 0.00 | 81 | 1009.2 |
| 20260505065936 | 12 | 290 | 0.0 | 0.0 | 0.00 | 0.00 | 0.00 | 79 | 1009.4 |
| 20260505064436 | 13 | 290 | 0.0 | 0.0 | 0.00 | 0.00 | 0.00 | 77 | 1009.4 |
| 20260505062936 | 13 | 255 | 0.0 | 0.0 | 0.00 | 0.00 | 0.00 | 76 | 1009.4 |
| 20260505061436 | 14 | 242 | 8.0 | 0.0 | 0.00 | 0.00 | 0.00 | 75 | 1009.4 |
| 20260505055936 | 14 | 209 | 6.4 | 0.0 | 0.00 | 0.00 | 0.03 | 74 | 1010.0 |
| 20260505054436 | 14 | 197 | 9.7 | 0.0 | 0.00 | 0.00 | 0.03 | 74 | 1010.0 |
| 20260505052936 | 13 | 225 | 6.4 | 0.0 | 0.00 | 0.00 | 0.03 | 75 | 1010.0 |
| 20260505051436 | 12 | 231 | 3.2 | 0.0 | 0.00 | 0.00 | 0.03 | 77 | 1010.0 |
| 20260505041453 | 14 | 260 | 0.0 | 0.0 | 0.00 | 0.00 | 0.03 | 70 | 1010.2 |
| 20260505035936 | 15 | 306 | 0.0 | 0.0 | 0.00 | 0.00 | 0.03 | 68 | 1010.2 |
| 20260505034436 | 15 | 261 | 1.6 | 0.0 | 0.00 | 0.00 | 0.03 | 67 | 1010.2 |
| 20260505032936 | 15 | 237 | 4.8 | 0.0 | 0.00 | 0.00 | 0.03 | 65 | 1010.2 |
| 20260505031436 | 16 | 222 | 8.0 | 0.0 | 0.00 | 0.00 | 0.03 | 64 | 1010.2 |
| 20260505025936 | 16 | 227 | 6.4 | 0.0 | 0.00 | 0.00 | 0.03 | 62 | 1010.0 |
| 20260505024436 | 16 | 230 | 4.8 | 0.0 | 0.00 | 0.00 | 0.03 | 62 | 1010.0 |
| 20260505022936 | 16 | 215 | 9.7 | 0.0 | 0.00 | 0.00 | 0.03 | 61 | 1010.0 |
| 20260505021436 | 17 | 184 | 6.4 | 0.0 | 0.00 | 0.00 | 0.03 | 60 | 1010.0 |
| 20260505015936 | 17 | 216 | 4.8 | 0.0 | 0.00 | 0.00 | 0.03 | 59 | 1009.4 |
| 20260505014436 | 17 | 192 | 11.3 | 0.0 | 0.00 | 0.00 | 0.03 | 58 | 1009.4 |
| 20260505012936 | 18 | 208 | 11.3 | 0.0 | 0.00 | 0.00 | 0.03 | 58 | 1009.4 |
| 20260505011436 | 18 | 193 | 12.9 | 0.0 | 0.00 | 0.00 | 0.03 | 57 | 1009.4 |
| 20260505005953 | 18 | 220 | 12.9 | 0.0 | 0.00 | 0.00 | 0.03 | 55 | 1008.9 |
| 20260505004436 | 18 | 199 | 14.5 | 0.0 | 0.00 | 0.00 | 0.03 | 55 | 1008.9 |
| 20260505002953 | 19 | 188 | 6.4 | 0.0 | 0.00 | 0.00 | 0.03 | 54 | 1008.9 |
| 20260505001436 | 20 | 220 | 14.5 | 0.0 | 0.00 | 0.00 | 0.00 | 54 | 1008.9 |
| 20260504235936 | 20 | 216 | 16.1 | 0.0 | 0.00 | 0.00 | 0.00 | 50 | 1008.2 |
| 20260504234436 | 21 | 214 | 14.5 | 0.0 | 0.00 | 0.00 | 0.00 | 49 | 1008.2 |
| 20260504232937 | 21 | 197 | 22.5 | 0.0 | 0.00 | 0.00 | 0.00 | 47 | 1008.2 |
| 20260504231453 | 22 | 218 | 32.2 | 0.0 | 0.00 | 0.00 | 0.00 | 44 | 1008.2 |
| 20260504225937 | 23 | 199 | 33.8 | 0.0 | 0.00 | 0.00 | 0.00 | 41 | 1008.0 |
| 20260504224436 | 23 | 215 | 16.1 | 0.0 | 0.00 | 0.00 | 0.00 | 39 | 1008.0 |
| 20260504222936 | 24 | 240 | 22.5 | 0.0 | 0.00 | 0.00 | 0.00 | 35 | 1008.0 |
| 20260504221510 | 25 | 199 | 11.3 | 0.0 | 0.00 | 0.00 | 0.00 | 31 | 1008.0 |
| 20260504215936 | 24 | 218 | 12.9 | 0.0 | 0.00 | 0.00 | 0.00 | 32 | 1008.1 |
| 20260504214436 | 25 | 233 | 14.5 | 0.0 | 0.00 | 0.00 | 0.00 | 31 | 1008.1 |
| 20260504212953 | 25 | 228 | 22.5 | 0.0 | 0.00 | 0.00 | 0.00 | 30 | 1008.1 |
| 20260504211436 | 25 | 229 | 12.9 | 0.0 | 0.00 | 0.00 | 0.00 | 30 | 1008.1 |
| 20260504205936 | 25 | 245 | 29.0 | 0.0 | 0.00 | 0.00 | 0.00 | 29 | 1008.7 |
| 20260504204436 | 25 | 218 | 4.8 | 0.0 | 0.00 | 0.00 | 0.00 | 28 | 1008.7 |
| 20260504202936 | 25 | 241 | 19.3 | 0.0 | 0.00 | 0.00 | 0.00 | 27 | 1008.7 |
| 20260504201436 | 25 | 181 | 6.4 | 0.0 | 0.00 | 0.00 | 0.00 | 27 | 1008.7 |
| 20260504195936 | 25 | 198 | 16.1 | 0.0 | 0.00 | 0.00 | 0.00 | 28 | 1009.4 |
| 20260504194436 | 25 | 231 | 6.4 | 0.0 | 0.00 | 0.00 | 0.00 | 27 | 1009.4 |
| 20260504192936 | 25 | 322 | 4.8 | 0.0 | 0.00 | 0.00 | 0.00 | 28 | 1009.4 |
| 20260504191436 | 24 | 187 | 0.0 | 0.0 | 0.00 | 0.00 | 0.00 | 29 | 1009.4 |
| 20260504185936 | 25 | 230 | 9.7 | 0.0 | 0.00 | 0.00 | 0.00 | 30 | 1010.1 |